createdAt,value
2019-06-07T00:00:37.653Z,9.82
2019-06-07T00:02:59.317Z,9.74
2019-06-07T00:05:28.557Z,9.80
2019-06-07T00:08:07.843Z,9.70
2019-06-07T00:10:36.616Z,9.68
2019-06-07T00:13:00.556Z,9.72
2019-06-07T00:15:29.821Z,9.69
2019-06-07T00:17:59.221Z,9.78
2019-06-07T00:20:28.660Z,9.69
2019-06-07T00:22:58.250Z,9.65
2019-06-07T00:25:27.564Z,9.59
2019-06-07T00:27:56.898Z,9.48
2019-06-07T00:30:45.941Z,9.48
2019-06-07T00:32:57.479Z,9.59
2019-06-07T00:35:27.007Z,9.58
2019-06-07T00:37:56.477Z,9.56
2019-06-07T00:40:31.837Z,9.49
2019-06-07T00:42:57.160Z,9.54
2019-06-07T00:45:26.572Z,9.42
2019-06-07T00:47:56.030Z,9.35
2019-06-07T00:50:25.372Z,9.37
2019-06-07T00:55:27.707Z,9.31
2019-06-07T00:57:56.821Z,9.21
2019-06-07T01:00:26.361Z,9.14
2019-06-07T01:02:55.669Z,9.20
2019-06-07T01:05:31.129Z,9.19
2019-06-07T01:07:56.166Z,9.30
2019-06-07T01:10:51.785Z,9.44
2019-06-07T01:12:56.521Z,9.56
2019-06-07T01:15:29.122Z,9.65
2019-06-07T01:18:33.844Z,9.77
2019-06-07T01:20:28.862Z,9.80
2019-06-07T01:22:58.149Z,9.74
2019-06-07T01:25:28.959Z,9.75
2019-06-07T01:27:58.667Z,9.78
2019-06-07T01:30:29.273Z,9.82
2019-06-07T01:32:59.119Z,9.80
2019-06-07T01:35:29.995Z,9.77
2019-06-07T01:37:59.755Z,9.70
2019-06-07T01:40:32.293Z,9.65
2019-06-07T01:43:00.144Z,9.63
2019-06-07T01:45:31.143Z,9.58
2019-06-07T01:48:00.617Z,9.53
2019-06-07T01:50:31.443Z,9.40
2019-06-07T01:53:00.967Z,9.44
2019-06-07T01:55:32.751Z,9.36
2019-06-07T01:58:02.207Z,9.34
2019-06-07T02:00:32.724Z,9.27
2019-06-07T02:03:02.438Z,9.26
2019-06-07T02:05:32.471Z,9.19
2019-06-07T02:08:01.896Z,9.13
2019-06-07T02:10:33.580Z,9.20
2019-06-07T02:13:02.341Z,9.14
2019-06-07T02:15:36.432Z,9.10
2019-06-07T02:18:02.762Z,9.08
2019-06-07T02:20:34.437Z,9.04
2019-06-07T02:23:03.102Z,9.10
2019-06-07T02:25:45.533Z,9.00
2019-06-07T02:28:26.494Z,8.93
2019-06-07T02:30:44.024Z,8.94
2019-06-07T02:33:05.935Z,9.00
2019-06-07T02:35:40.438Z,8.87
2019-06-07T02:38:06.909Z,8.79
2019-06-07T02:40:37.771Z,8.82
2019-06-07T02:43:07.071Z,8.79
2019-06-07T02:45:43.140Z,8.90
2019-06-07T02:48:07.733Z,8.96
2019-06-07T02:50:38.797Z,9.01
2019-06-07T02:53:08.413Z,9.02
2019-06-07T02:56:33.096Z,9.05
2019-06-07T02:58:08.801Z,9.04
2019-06-07T03:01:09.021Z,9.02
2019-06-07T03:03:22.318Z,9.00
2019-06-07T03:05:51.594Z,9.04
2019-06-07T03:08:20.915Z,9.11
2019-06-07T03:10:51.074Z,9.16
2019-06-07T03:13:22.155Z,9.19
2019-06-07T03:15:54.861Z,9.14
2019-06-07T03:18:41.904Z,9.08
2019-06-07T03:21:15.676Z,8.99
2019-06-07T03:23:46.885Z,8.93
2019-06-07T03:26:17.859Z,8.84
2019-06-07T03:28:47.311Z,8.88
2019-06-07T03:31:16.730Z,8.81
2019-06-07T03:33:46.211Z,8.87
2019-06-07T03:36:23.774Z,8.96
2019-06-07T03:38:46.719Z,8.97
2019-06-07T03:41:16.143Z,9.06
2019-06-07T03:43:45.836Z,9.18
2019-06-07T03:46:15.203Z,9.27
2019-06-07T03:48:44.659Z,9.35
2019-06-07T03:51:24.524Z,9.44
2019-06-07T03:53:45.049Z,9.54
2019-06-07T03:56:15.275Z,9.62
2019-06-07T03:58:49.849Z,9.59
2019-06-07T04:01:16.341Z,9.52
2019-06-07T04:03:51.381Z,9.45
2019-06-07T04:06:16.773Z,9.37
2019-06-07T04:08:46.282Z,9.28
2019-06-07T04:11:15.642Z,9.22
2019-06-07T04:13:44.965Z,9.22
2019-06-07T04:16:14.192Z,9.14
2019-06-07T04:18:43.476Z,9.16
2019-06-07T04:21:12.834Z,9.28
2019-06-07T04:23:45.784Z,9.37
2019-06-07T04:26:13.298Z,9.47
2019-06-07T04:29:31.167Z,9.44
2019-06-07T04:31:13.661Z,9.38
2019-06-07T04:33:43.708Z,9.42
2019-06-07T04:36:14.536Z,9.44
2019-06-07T04:38:44.331Z,9.45
2019-06-07T04:41:14.994Z,9.47
2019-06-07T04:43:44.621Z,9.60
2019-06-07T04:46:13.918Z,9.67
2019-06-07T04:48:54.024Z,9.76
2019-06-07T04:51:25.797Z,9.90
2019-06-07T04:53:55.120Z,9.93
2019-06-07T04:56:24.478Z,9.94
2019-06-07T04:58:54.004Z,9.97
2019-06-07T05:01:29.111Z,10.04
2019-06-07T05:03:54.343Z,10.13
2019-06-07T05:06:23.721Z,10.33
2019-06-07T05:08:53.164Z,10.57
2019-06-07T05:11:22.451Z,10.53
2019-06-07T05:13:51.834Z,10.46
2019-06-07T05:16:21.099Z,10.47
2019-06-07T05:18:50.446Z,10.64
2019-06-07T05:21:19.734Z,10.90
2019-06-07T05:24:06.269Z,11.05
2019-06-07T05:26:20.039Z,11.05
2019-06-07T05:28:49.499Z,11.12
2019-06-07T05:31:18.794Z,11.16
2019-06-07T05:33:48.152Z,11.16
2019-06-07T05:36:17.455Z,11.52
2019-06-07T05:38:46.739Z,11.72
2019-06-07T05:41:16.060Z,11.89
2019-06-07T05:43:55.021Z,11.47
2019-06-07T05:46:16.554Z,11.48
2019-06-07T05:48:45.860Z,11.42
2019-06-07T05:51:15.247Z,11.57
2019-06-07T05:53:46.043Z,11.74
2019-06-07T05:56:17.473Z,11.77
2019-06-07T05:58:47.323Z,12.54
2019-06-07T06:03:48.476Z,13.82
2019-06-07T06:06:19.055Z,13.71
2019-06-07T06:08:49.505Z,14.11
2019-06-07T06:11:19.145Z,14.29
2019-06-07T06:14:06.144Z,14.80
2019-06-07T06:16:19.584Z,14.99
2019-06-07T06:18:49.254Z,15.15
2019-06-07T06:21:20.392Z,15.27
2019-06-07T06:23:51.899Z,14.51
2019-06-07T06:26:21.360Z,15.15
2019-06-07T06:28:50.818Z,16.42
2019-06-07T06:31:20.413Z,16.07
2019-06-07T06:33:50.280Z,15.84
2019-06-07T06:36:20.587Z,15.99
2019-06-07T06:38:51.551Z,16.22
2019-06-07T06:41:21.303Z,15.96
2019-06-07T06:43:52.582Z,15.86
2019-06-07T06:46:37.981Z,16.12
2019-06-07T06:48:55.109Z,16.60
2019-06-07T06:51:24.301Z,17.11
2019-06-07T06:53:53.648Z,16.34
2019-06-07T06:56:23.005Z,16.74
2019-06-07T06:59:35.015Z,16.73
2019-06-07T07:01:23.724Z,17.11
2019-06-07T07:04:12.150Z,17.55
2019-06-07T07:06:26.845Z,18.10
2019-06-07T07:08:57.718Z,17.41
2019-06-07T07:11:27.177Z,18.26
2019-06-07T07:13:57.245Z,18.06
2019-06-07T07:16:26.591Z,18.50
2019-06-07T07:18:56.023Z,17.60
2019-06-07T07:21:25.268Z,17.72
2019-06-07T07:24:19.662Z,18.53
2019-06-07T07:26:25.550Z,18.17
2019-06-07T07:28:57.622Z,17.83
2019-06-07T07:31:25.929Z,18.69
2019-06-07T07:36:38.663Z,18.47
2019-06-07T07:39:04.581Z,18.19
2019-06-07T07:41:28.734Z,18.65
2019-06-07T07:44:05.959Z,18.82
2019-06-07T07:46:30.370Z,18.82
2019-06-07T07:49:00.054Z,19.20
2019-06-07T07:51:29.374Z,19.49
2019-06-07T07:54:10.216Z,20.32
2019-06-07T07:56:29.899Z,20.13
2019-06-07T07:59:01.965Z,21.21
2019-06-07T08:01:30.362Z,21.21
2019-06-07T08:03:59.721Z,20.11
2019-06-07T08:06:29.271Z,22.35
2019-06-07T08:08:59.129Z,22.71
2019-06-07T08:11:28.572Z,20.88
2019-06-07T08:13:58.900Z,20.87
2019-06-07T08:16:28.497Z,20.85
2019-06-07T08:19:03.497Z,21.42
2019-06-07T08:21:29.075Z,22.01
2019-06-07T08:24:04.132Z,22.48
2019-06-07T08:26:29.647Z,21.78
2019-06-07T08:29:02.580Z,22.08
2019-06-07T08:31:30.161Z,22.42
2019-06-07T08:34:00.824Z,22.18
2019-06-07T08:36:41.210Z,21.63
2019-06-07T08:39:07.318Z,22.24
2019-06-07T08:41:32.318Z,22.43
2019-06-07T08:44:21.722Z,21.83
2019-06-07T08:46:33.375Z,23.24
2019-06-07T08:49:04.869Z,22.28
2019-06-07T08:51:34.266Z,22.30
2019-06-07T08:54:21.494Z,23.42
2019-06-07T08:56:34.704Z,23.05
2019-06-07T08:59:11.219Z,24.89
2019-06-07T09:01:35.562Z,23.99
2019-06-07T09:04:09.935Z,24.00
2019-06-07T09:09:08.375Z,25.31
2019-06-07T09:11:37.703Z,26.04
2019-06-07T09:14:09.109Z,25.98
2019-06-07T09:16:38.125Z,25.24
2019-06-07T09:19:10.897Z,26.78
2019-06-07T09:21:38.579Z,25.45
2019-06-07T09:24:11.476Z,25.09
2019-06-07T09:26:39.084Z,26.15
2019-06-07T09:29:11.785Z,25.58
2019-06-07T09:31:51.951Z,25.74
2019-06-07T09:34:14.944Z,24.85
2019-06-07T09:36:42.344Z,25.60
2019-06-07T09:39:12.802Z,26.28
2019-06-07T09:41:49.712Z,26.60
2019-06-07T09:44:23.808Z,27.37
2019-06-07T09:46:44.390Z,27.12
2019-06-07T09:49:28.239Z,26.29
2019-06-07T09:51:44.809Z,26.16
2019-06-07T09:55:02.230Z,23.80
2019-06-07T09:56:46.428Z,24.34
2019-06-07T09:59:15.966Z,25.71
2019-06-07T10:01:45.423Z,25.16
2019-06-07T10:04:30.414Z,25.92
2019-06-07T10:06:45.978Z,25.52
2019-06-07T10:11:46.612Z,26.34
2019-06-07T10:14:15.861Z,26.16
2019-06-07T10:16:46.934Z,25.56
2019-06-07T10:19:16.318Z,25.96
2019-06-07T10:21:45.728Z,27.08
2019-06-07T10:24:15.228Z,25.15
2019-06-07T10:26:44.886Z,26.49
2019-06-07T10:29:14.202Z,26.27
2019-06-07T10:31:43.594Z,25.51
2019-06-07T10:34:12.984Z,26.20
2019-06-07T10:36:42.368Z,25.63
2019-06-07T10:39:11.788Z,26.22
2019-06-07T10:41:41.139Z,26.48
2019-06-07T10:44:11.443Z,25.97
2019-06-07T10:46:41.033Z,24.64
2019-06-07T10:49:10.309Z,24.94
2019-06-07T10:51:39.662Z,26.55
2019-06-07T10:54:21.925Z,26.96
2019-06-07T10:56:40.100Z,27.44
2019-06-07T10:59:09.925Z,27.37
2019-06-07T11:01:40.483Z,24.49
2019-06-07T11:04:09.888Z,22.73
2019-06-07T11:06:39.217Z,22.39
2019-06-07T11:09:10.005Z,22.07
2019-06-07T11:11:39.495Z,22.26
2019-06-07T11:14:08.960Z,21.76
2019-06-07T11:16:38.280Z,21.68
2019-06-07T11:19:08.095Z,21.77
2019-06-07T11:21:37.427Z,21.17
2019-06-07T11:24:08.031Z,21.29
2019-06-07T11:26:37.575Z,21.43
2019-06-07T11:29:08.838Z,21.61
2019-06-07T11:31:39.858Z,22.09
2019-06-07T11:34:10.485Z,24.17
2019-06-07T11:36:39.896Z,25.52
2019-06-07T11:39:11.115Z,26.25
2019-06-07T11:41:40.637Z,26.49
2019-06-07T11:44:10.990Z,26.00
2019-06-07T11:46:40.272Z,25.27
2019-06-07T11:49:13.028Z,23.36
2019-06-07T11:51:44.270Z,23.41
2019-06-07T11:54:16.175Z,22.49
2019-06-07T11:56:46.914Z,23.74
2019-06-07T11:59:17.453Z,22.86
2019-06-07T12:01:46.907Z,23.45
2019-06-07T12:04:33.382Z,23.06
2019-06-07T12:06:49.136Z,24.56
2019-06-07T12:09:18.907Z,24.28
2019-06-07T12:11:48.378Z,24.23
2019-06-07T12:14:19.227Z,23.02
2019-06-07T12:16:48.724Z,22.47
2019-06-07T12:19:19.674Z,22.66
2019-06-07T12:21:49.228Z,23.09
2019-06-07T12:24:19.395Z,23.48
2019-06-07T12:26:49.549Z,23.83
2019-06-07T12:29:19.315Z,25.61
2019-06-07T12:31:48.812Z,25.73
2019-06-07T12:34:19.513Z,24.66
2019-06-07T12:36:49.309Z,24.11
2019-06-07T12:39:18.635Z,23.76
2019-06-07T12:41:48.089Z,23.68
2019-06-07T12:44:18.616Z,23.96
2019-06-07T12:46:48.114Z,24.66
2019-06-07T12:49:17.389Z,25.08
2019-06-07T12:51:46.963Z,24.78
2019-06-07T12:54:17.590Z,24.53
2019-06-07T12:56:46.942Z,25.79
2019-06-07T12:59:16.202Z,25.67
2019-06-07T13:01:45.607Z,26.33
2019-06-07T13:04:14.848Z,27.28
2019-06-07T13:06:44.233Z,27.51
2019-06-07T13:09:13.462Z,26.63
2019-06-07T13:11:42.903Z,26.77
2019-06-07T13:14:12.195Z,27.42
2019-06-07T13:16:41.471Z,27.85
2019-06-07T13:19:10.813Z,27.29
2019-06-07T13:21:40.261Z,27.53
2019-06-07T13:24:09.643Z,28.11
2019-06-07T13:26:39.116Z,28.08
2019-06-07T13:29:08.491Z,28.83
2019-06-07T13:31:37.898Z,26.92
2019-06-07T13:34:07.242Z,27.02
2019-06-07T13:36:36.630Z,27.87
2019-06-07T13:39:08.082Z,28.08
2019-06-07T13:41:42.836Z,28.48
2019-06-07T13:44:08.597Z,27.65
2019-06-07T13:46:37.845Z,27.46
2019-06-07T13:49:07.235Z,27.28
2019-06-07T13:51:36.655Z,26.92
2019-06-07T13:54:06.107Z,27.30
2019-06-07T13:56:35.424Z,27.22
2019-06-07T13:59:04.786Z,27.64
2019-06-07T14:01:34.130Z,27.93
2019-06-07T14:04:03.639Z,26.23
2019-06-07T14:06:32.871Z,27.25
2019-06-07T14:09:02.241Z,27.86
2019-06-07T14:11:49.356Z,26.90
2019-06-07T14:14:03.106Z,26.13
2019-06-07T14:16:32.439Z,25.23
2019-06-07T14:19:02.179Z,23.87
2019-06-07T14:21:31.591Z,23.54
2019-06-07T14:24:00.955Z,23.26
2019-06-07T14:26:32.392Z,23.28
2019-06-07T14:29:01.272Z,23.29
2019-06-07T14:31:30.565Z,23.13
2019-06-07T14:34:00.036Z,23.45
2019-06-07T14:36:29.298Z,23.62
2019-06-07T14:38:58.703Z,24.08
2019-06-07T14:41:29.556Z,25.79
2019-06-07T14:43:59.008Z,26.34
2019-06-07T14:46:28.295Z,26.56
2019-06-07T14:48:57.782Z,26.32
2019-06-07T14:51:28.316Z,24.77
2019-06-07T14:53:57.872Z,23.81
2019-06-07T14:56:27.232Z,23.24
2019-06-07T14:58:56.638Z,22.74
2019-06-07T15:01:26.367Z,22.36
2019-06-07T15:03:56.062Z,22.14
2019-06-07T15:06:26.802Z,22.17
2019-06-07T15:08:56.382Z,22.13
2019-06-07T15:11:26.842Z,22.69
2019-06-07T15:13:56.359Z,22.45
2019-06-07T15:16:25.810Z,22.01
2019-06-07T15:18:55.243Z,21.60
2019-06-07T15:21:24.524Z,21.75
2019-06-07T15:23:58.604Z,21.83
2019-06-07T15:26:30.208Z,21.96
2019-06-07T15:28:59.756Z,22.46
2019-06-07T15:31:29.896Z,23.02
2019-06-07T15:33:59.430Z,24.42
2019-06-07T15:36:28.782Z,25.24
2019-06-07T15:38:58.078Z,25.32
2019-06-07T15:41:28.817Z,24.83
2019-06-07T15:43:58.641Z,24.80
2019-06-07T15:46:29.637Z,24.52
2019-06-07T15:48:58.962Z,23.39
2019-06-07T15:51:28.369Z,23.06
2019-06-07T15:53:57.696Z,22.59
2019-06-07T15:56:27.211Z,22.36
2019-06-07T15:58:56.805Z,22.22
2019-06-07T16:01:26.185Z,22.04
2019-06-07T16:03:55.509Z,21.95
2019-06-07T16:06:25.046Z,20.01
2019-06-07T16:08:54.471Z,18.20
2019-06-07T16:11:23.685Z,17.13
2019-06-07T16:13:52.966Z,16.84
2019-06-07T16:16:22.601Z,16.64
2019-06-07T16:18:51.960Z,16.63
2019-06-07T16:21:21.340Z,16.38
2019-06-07T16:23:50.690Z,16.17
2019-06-07T16:26:20.023Z,16.01
2019-06-07T16:28:49.378Z,16.01
2019-06-07T16:31:18.757Z,16.10
2019-06-07T16:33:48.231Z,16.32
2019-06-07T16:36:17.645Z,16.20
2019-06-07T16:38:46.901Z,16.18
2019-06-07T16:41:16.358Z,16.26
2019-06-07T16:43:45.681Z,16.39
2019-06-07T16:46:15.066Z,16.25
2019-06-07T16:48:45.061Z,16.25
2019-06-07T16:51:14.728Z,16.20
2019-06-07T16:53:44.554Z,15.72
2019-06-07T16:56:14.008Z,15.72
2019-06-07T16:58:44.384Z,15.16
2019-06-07T17:01:14.340Z,15.03
2019-06-07T17:03:43.671Z,15.06
2019-06-07T17:06:12.917Z,15.04
2019-06-07T17:08:42.283Z,14.86
2019-06-07T17:11:11.529Z,14.72
2019-06-07T17:13:42.243Z,14.73
2019-06-07T17:16:11.984Z,14.64
2019-06-07T17:18:42.956Z,14.44
2019-06-07T17:21:12.382Z,14.30
2019-06-07T17:23:41.725Z,14.15
2019-06-07T17:26:11.022Z,14.11
2019-06-07T17:28:41.630Z,14.13
2019-06-07T17:31:11.089Z,14.04
2019-06-07T17:33:41.860Z,13.97
2019-06-07T17:36:11.336Z,13.92
2019-06-07T17:38:42.348Z,13.91
2019-06-07T17:41:11.779Z,14.05
2019-06-07T17:43:53.028Z,13.92
2019-06-07T17:46:12.403Z,13.90
2019-06-07T17:48:41.819Z,13.83
2019-06-07T17:51:11.182Z,13.87
2019-06-07T17:53:41.867Z,13.93
2019-06-07T17:56:11.334Z,14.04
2019-06-07T17:58:42.124Z,13.98
2019-06-07T18:01:11.533Z,13.86
2019-06-07T18:03:40.854Z,14.16
2019-06-07T18:06:10.961Z,14.10
2019-06-07T18:08:41.435Z,13.95
2019-06-07T18:11:11.073Z,13.93
2019-06-07T18:13:40.793Z,13.78
2019-06-07T18:16:10.106Z,13.77
2019-06-07T18:18:39.821Z,13.81
2019-06-07T18:21:09.388Z,13.66
2019-06-07T18:23:38.677Z,13.57
2019-06-07T18:26:08.161Z,13.48
2019-06-07T18:28:37.410Z,13.46
2019-06-07T18:31:06.789Z,13.45
2019-06-07T18:33:36.218Z,13.53
2019-06-07T18:36:05.606Z,13.48
2019-06-07T18:38:34.950Z,13.33
2019-06-07T18:41:04.626Z,13.30
2019-06-07T18:43:35.651Z,13.30
2019-06-07T18:46:05.332Z,13.14
2019-06-07T18:48:34.743Z,13.14
2019-06-07T18:51:04.209Z,13.16
2019-06-07T18:53:33.670Z,13.09
2019-06-07T18:56:04.812Z,13.18
2019-06-07T18:58:34.308Z,13.41
2019-06-07T19:01:05.903Z,13.38
2019-06-07T19:03:35.406Z,13.40
2019-06-07T19:06:05.338Z,13.26
2019-06-07T19:08:34.780Z,13.24
2019-06-07T19:11:04.553Z,13.34
2019-06-07T19:13:36.338Z,13.34
2019-06-07T19:16:07.405Z,13.14
2019-06-07T19:18:36.947Z,12.99
2019-06-07T19:21:06.423Z,13.03
2019-06-07T19:23:35.859Z,13.26
2019-06-07T19:26:05.709Z,13.24
2019-06-07T19:28:35.083Z,13.26
2019-06-07T19:31:05.001Z,13.34
2019-06-07T19:33:48.358Z,13.66
2019-06-07T19:36:05.625Z,13.72
2019-06-07T19:38:34.993Z,13.60
2019-06-07T19:41:18.202Z,13.53
2019-06-07T19:43:35.530Z,13.57
2019-06-07T19:46:04.818Z,13.60
2019-06-07T19:48:34.232Z,13.64
2019-06-07T19:51:03.824Z,13.62
2019-06-07T19:53:33.219Z,13.71
2019-06-07T19:56:03.478Z,13.67
2019-06-07T19:58:33.256Z,13.72
2019-06-07T20:01:04.763Z,13.73
2019-06-07T20:03:35.232Z,13.72
2019-06-07T20:06:05.005Z,13.63
2019-06-07T20:08:35.668Z,13.68
2019-06-07T20:11:05.092Z,13.57
2019-06-07T20:13:34.465Z,13.49
2019-06-07T20:16:05.138Z,13.38
2019-06-07T20:18:34.887Z,13.27
2019-06-07T20:21:09.212Z,13.27
2019-06-07T20:23:38.739Z,13.17
2019-06-07T20:26:11.037Z,13.14
2019-06-07T20:28:41.213Z,13.10
2019-06-07T20:31:11.505Z,13.06
2019-06-07T20:33:41.113Z,12.90
2019-06-07T20:36:10.910Z,13.03
2019-06-07T20:38:40.865Z,13.10
2019-06-07T20:41:10.701Z,13.16
2019-06-07T20:43:40.439Z,13.21
2019-06-07T20:46:10.195Z,13.18
2019-06-07T20:48:40.141Z,13.10
2019-06-07T20:51:10.678Z,13.24
2019-06-07T20:53:40.787Z,13.32
2019-06-07T20:56:10.565Z,13.37
2019-06-07T20:58:40.594Z,13.46
2019-06-07T21:01:09.901Z,13.43
2019-06-07T21:03:39.368Z,13.48
2019-06-07T21:06:09.975Z,13.43
2019-06-07T21:08:39.443Z,13.39
2019-06-07T21:11:09.838Z,13.32
2019-06-07T21:13:39.242Z,13.25
2019-06-07T21:16:08.618Z,13.27
2019-06-07T21:18:37.921Z,13.28
2019-06-07T21:21:08.463Z,13.24
2019-06-07T21:23:37.886Z,13.30
2019-06-07T21:26:07.403Z,13.40
2019-06-07T21:28:39.665Z,13.43
2019-06-07T21:31:08.211Z,13.43
2019-06-07T21:33:37.775Z,13.46
2019-06-07T21:36:07.841Z,13.45
2019-06-07T21:38:37.607Z,13.52
2019-06-07T21:41:08.149Z,13.52
2019-06-07T21:43:37.561Z,13.43
2019-06-07T21:46:12.118Z,13.36
2019-06-07T21:48:38.542Z,13.34
2019-06-07T21:51:08.648Z,13.22
2019-06-07T21:53:38.068Z,13.22
2019-06-07T21:56:08.882Z,13.19
2019-06-07T21:58:38.668Z,13.19
2019-06-07T22:01:33.729Z,13.25
2019-06-07T22:04:03.602Z,13.23
2019-06-07T22:06:32.872Z,13.31
2019-06-07T22:09:03.706Z,13.33
2019-06-07T22:11:33.692Z,13.36
2019-06-07T22:14:04.131Z,13.33
2019-06-07T22:16:33.544Z,13.23
2019-06-07T22:19:04.408Z,13.19
2019-06-07T22:21:34.023Z,13.19
2019-06-07T22:24:04.724Z,13.25
2019-06-07T22:26:34.248Z,13.17
2019-06-07T22:29:03.779Z,13.26
2019-06-07T22:31:33.080Z,13.22
2019-06-07T22:34:03.017Z,13.21
2019-06-07T22:36:32.756Z,13.14
2019-06-07T22:39:02.073Z,13.25
2019-06-07T22:41:31.441Z,13.24
2019-06-07T22:44:00.893Z,13.19
2019-06-07T22:46:37.417Z,13.21
2019-06-07T22:49:01.322Z,13.30
2019-06-07T22:51:30.899Z,13.22
2019-06-07T22:54:00.230Z,13.11
2019-06-07T22:56:44.098Z,13.06
2019-06-07T22:59:16.977Z,13.11
2019-06-07T23:01:44.679Z,13.04
2019-06-07T23:04:14.581Z,13.01
2019-06-07T23:06:43.917Z,13.13
2019-06-07T23:09:13.284Z,13.13
2019-06-07T23:11:42.572Z,13.04
2019-06-07T23:14:13.416Z,13.17
2019-06-07T23:16:54.758Z,13.23
2019-06-07T23:21:43.279Z,13.29
2019-06-07T23:24:12.627Z,13.28
2019-06-07T23:26:41.947Z,13.31
2019-06-07T23:29:12.389Z,13.24
2019-06-07T23:31:41.770Z,13.09
2019-06-07T23:34:11.772Z,13.08
2019-06-07T23:36:42.254Z,13.02
2019-06-07T23:39:13.033Z,12.90
2019-06-07T23:41:42.528Z,12.93
2019-06-07T23:44:13.214Z,12.96
2019-06-07T23:46:42.740Z,12.94
2019-06-07T23:49:13.930Z,12.88
2019-06-07T23:51:43.746Z,13.04
2019-06-07T23:54:13.772Z,12.99
2019-06-07T23:56:43.129Z,12.90
2019-06-07T23:59:12.527Z,12.82
